IGO796 VOMM-VOBL
Flight info
| Callsign | IGO796 |
|---|---|
| Flight time | N/A |
| Altitude | 20000 |
| Route | MMV W117 BIA |
| Aircraft | A320/M-SDE3FGHIRWY/LB1 |
Departure
| Time | 2026-04-29 13:41 |
|---|---|
| Airport | Chennai International Airport (VOMM) |
Arrival
| Time | N/A |
|---|---|
| Airport | Kempegowda International Airport Bengaluru (VOBL) |
| Time | Latitude | Longitude | Altitude | Speed | Heading |
|---|---|---|---|---|---|
| 2026-04-29 13:22 | 12.98436 | 80.16530 | 56 ft | 0 kts | 159° |
| 2026-04-29 13:32 | 12.98437 | 80.16530 | 55 ft | 1 kts | 159° |
| 2026-04-29 13:32 | 12.98450 | 80.16525 | 49 ft | 3 kts | 163° |
| 2026-04-29 13:32 | 12.98469 | 80.16520 | 51 ft | 3 kts | 175° |
| 2026-04-29 13:33 | 12.98489 | 80.16520 | 53 ft | 3 kts | 200° |
| 2026-04-29 13:33 | 12.98503 | 80.16529 | 53 ft | 2 kts | 244° |
| 2026-04-29 13:33 | 12.98505 | 80.16532 | 52 ft | 0 kts | 249° |
| 2026-04-29 13:37 | 12.98504 | 80.16531 | 55 ft | 1 kts | 249° |
| 2026-04-29 13:37 | 12.98493 | 80.16498 | 53 ft | 8 kts | 249° |
| 2026-04-29 13:38 | 12.98463 | 80.16417 | 53 ft | 15 kts | 249° |
| 2026-04-29 13:38 | 12.98422 | 80.16303 | 52 ft | 18 kts | 250° |
| 2026-04-29 13:38 | 12.98375 | 80.16173 | 54 ft | 21 kts | 250° |
| 2026-04-29 13:38 | 12.98321 | 80.16029 | 51 ft | 23 kts | 246° |
| 2026-04-29 13:39 | 12.98298 | 80.15869 | 55 ft | 24 kts | 284° |
| 2026-04-29 13:39 | 12.98347 | 80.15701 | 51 ft | 22 kts | 286° |
| 2026-04-29 13:39 | 12.98381 | 80.15579 | 56 ft | 16 kts | 285° |
| 2026-04-29 13:39 | 12.98413 | 80.15462 | 56 ft | 18 kts | 288° |
| 2026-04-29 13:40 | 12.98477 | 80.15461 | 50 ft | 14 kts | 67° |
| 2026-04-29 13:40 | 12.98583 | 80.15747 | 53 ft | 80 kts | 69° |
| 2026-04-29 13:40 | 12.98860 | 80.16486 | 50 ft | 139 kts | 69° |
| 2026-04-29 13:40 | 12.99265 | 80.17552 | 183 ft | 172 kts | 74° |
| 2026-04-29 13:41 | 12.99684 | 80.18693 | 846 ft | 171 kts | 74° |
| 2026-04-29 13:41 | 13.00113 | 80.19846 | 1577 ft | 170 kts | 75° |
| 2026-04-29 13:41 | 13.00787 | 80.20892 | 2043 ft | 191 kts | 38° |
| 2026-04-29 13:41 | 13.02123 | 80.21247 | 2251 ft | 214 kts | 349° |
| 2026-04-29 13:42 | 13.03442 | 80.20508 | 2429 ft | 229 kts | 304° |
| 2026-04-29 13:42 | 13.04131 | 80.18991 | 2705 ft | 245 kts | 281° |
| 2026-04-29 13:42 | 13.04461 | 80.17203 | 3170 ft | 263 kts | 275° |
| 2026-04-29 13:42 | 13.04703 | 80.15321 | 3926 ft | 269 kts | 276° |
| 2026-04-29 13:43 | 13.04958 | 80.13410 | 4760 ft | 272 kts | 277° |
| 2026-04-29 13:43 | 13.05257 | 80.11475 | 5535 ft | 277 kts | 279° |
| 2026-04-29 13:43 | 13.05598 | 80.09509 | 6265 ft | 284 kts | 280° |
| 2026-04-29 13:43 | 13.05978 | 80.07501 | 6964 ft | 290 kts | 281° |
| 2026-04-29 13:44 | 13.06385 | 80.05459 | 7666 ft | 295 kts | 282° |
| 2026-04-29 13:44 | 13.06812 | 80.03378 | 8389 ft | 300 kts | 282° |
| 2026-04-29 13:44 | 13.07245 | 80.01268 | 9121 ft | 305 kts | 282° |
| 2026-04-29 13:44 | 13.07686 | 79.99127 | 9852 ft | 310 kts | 282° |
| 2026-04-29 13:45 | 13.08145 | 79.96896 | 10156 ft | 331 kts | 282° |
| 2026-04-29 13:45 | 13.08635 | 79.94516 | 10433 ft | 349 kts | 282° |
| 2026-04-29 13:45 | 13.09140 | 79.92058 | 11011 ft | 355 kts | 282° |
| 2026-04-29 13:45 | 13.09650 | 79.89568 | 11671 ft | 358 kts | 282° |
| 2026-04-29 13:46 | 13.10166 | 79.87055 | 12340 ft | 361 kts | 282° |
| 2026-04-29 13:46 | 13.10682 | 79.84532 | 13030 ft | 363 kts | 282° |
| 2026-04-29 13:46 | 13.11197 | 79.81990 | 13685 ft | 366 kts | 282° |
| 2026-04-29 13:46 | 13.11716 | 79.79432 | 14287 ft | 367 kts | 282° |
| 2026-04-29 13:47 | 13.12236 | 79.76862 | 14905 ft | 368 kts | 282° |
| 2026-04-29 13:47 | 13.12759 | 79.74288 | 15534 ft | 369 kts | 283° |
| 2026-04-29 13:47 | 13.13286 | 79.71709 | 16169 ft | 370 kts | 283° |
| 2026-04-29 13:47 | 13.13815 | 79.69125 | 16795 ft | 371 kts | 283° |
| 2026-04-29 13:48 | 13.14346 | 79.66527 | 17405 ft | 373 kts | 283° |
| 2026-04-29 13:48 | 13.14890 | 79.63876 | 18000 ft | 375 kts | 283° |
| 2026-04-29 13:48 | 13.15426 | 79.61256 | 18508 ft | 377 kts | 283° |
| 2026-04-29 13:48 | 13.15964 | 79.58621 | 19013 ft | 379 kts | 283° |
| 2026-04-29 13:49 | 13.16502 | 79.55971 | 19515 ft | 381 kts | 283° |
| 2026-04-29 13:49 | 13.17048 | 79.53262 | 19715 ft | 393 kts | 282° |
| 2026-04-29 13:49 | 13.17610 | 79.50467 | 19778 ft | 408 kts | 282° |
| 2026-04-29 13:49 | 13.18194 | 79.47570 | 19785 ft | 423 kts | 282° |
| 2026-04-29 13:50 | 13.18802 | 79.44566 | 19786 ft | 436 kts | 282° |
| 2026-04-29 13:50 | 13.19423 | 79.41498 | 19785 ft | 440 kts | 282° |
| 2026-04-29 13:50 | 13.20049 | 79.38423 | 19791 ft | 442 kts | 282° |
| 2026-04-29 13:50 | 13.20676 | 79.35339 | 19791 ft | 442 kts | 282° |
| 2026-04-29 13:51 | 13.21303 | 79.32247 | 19796 ft | 442 kts | 282° |
| 2026-04-29 13:51 | 13.21926 | 79.29147 | 19798 ft | 443 kts | 282° |
| 2026-04-29 13:51 | 13.22546 | 79.26061 | 19799 ft | 443 kts | 282° |
| 2026-04-29 13:51 | 13.23171 | 79.22962 | 19803 ft | 443 kts | 282° |
| 2026-04-29 13:52 | 13.23794 | 79.19867 | 19807 ft | 443 kts | 282° |
| 2026-04-29 13:52 | 13.24418 | 79.16769 | 19807 ft | 443 kts | 282° |
| 2026-04-29 13:52 | 13.25038 | 79.13683 | 19811 ft | 443 kts | 282° |
| 2026-04-29 13:52 | 13.25660 | 79.10585 | 19815 ft | 443 kts | 282° |
| 2026-04-29 13:53 | 13.26281 | 79.07492 | 19817 ft | 442 kts | 282° |
| 2026-04-29 13:53 | 13.26903 | 79.04399 | 19821 ft | 442 kts | 282° |
| 2026-04-29 13:53 | 13.27524 | 79.01305 | 19825 ft | 442 kts | 282° |
| 2026-04-29 13:53 | 13.28143 | 78.98215 | 19827 ft | 442 kts | 282° |
| 2026-04-29 13:54 | 13.28764 | 78.95123 | 19833 ft | 442 kts | 282° |
| 2026-04-29 13:54 | 13.29273 | 78.92007 | 19839 ft | 443 kts | 275° |
| 2026-04-29 13:54 | 13.29200 | 78.88844 | 19598 ft | 444 kts | 266° |
| 2026-04-29 13:54 | 13.28918 | 78.85676 | 19149 ft | 450 kts | 265° |
| 2026-04-29 13:55 | 13.28605 | 78.82456 | 18672 ft | 455 kts | 265° |
| 2026-04-29 13:55 | 13.28277 | 78.79233 | 18187 ft | 455 kts | 265° |
| 2026-04-29 13:55 | 13.27948 | 78.76015 | 17639 ft | 452 kts | 265° |